createdAt,value
2019-03-22T00:00:57.002Z,2.78
2019-03-22T00:03:22.864Z,2.78
2019-03-22T00:05:48.824Z,2.78
2019-03-22T00:08:14.722Z,2.77
2019-03-22T00:10:40.879Z,2.76
2019-03-22T00:13:06.738Z,2.74
2019-03-22T00:15:32.677Z,2.74
2019-03-22T00:17:58.495Z,2.74
2019-03-22T00:20:24.395Z,2.74
2019-03-22T00:22:50.342Z,2.75
2019-03-22T00:25:16.203Z,2.77
2019-03-22T00:27:42.146Z,2.76
2019-03-22T00:30:09.509Z,2.77
2019-03-22T00:32:35.449Z,2.78
2019-03-22T00:35:01.334Z,2.77
2019-03-22T00:37:27.296Z,2.77
2019-03-22T00:39:53.157Z,2.74
2019-03-22T00:42:19.129Z,2.73
2019-03-22T00:44:45.077Z,2.71
2019-03-22T00:47:11.301Z,2.72
2019-03-22T00:49:37.270Z,2.72
2019-03-22T00:52:03.120Z,2.72
2019-03-22T00:54:28.982Z,2.72
2019-03-22T00:56:54.834Z,2.72
2019-03-22T00:59:20.725Z,2.72
2019-03-22T01:01:46.566Z,2.72
2019-03-22T01:04:12.441Z,2.71
2019-03-22T01:06:38.340Z,2.67
2019-03-22T01:09:04.447Z,2.63
2019-03-22T01:11:30.522Z,2.60
2019-03-22T01:13:56.476Z,2.58
2019-03-22T01:16:22.339Z,2.55
2019-03-22T01:18:48.189Z,2.52
2019-03-22T01:21:14.171Z,2.48
2019-03-22T01:23:40.045Z,2.48
2019-03-22T01:26:05.991Z,2.45
2019-03-22T01:28:31.858Z,2.44
2019-03-22T01:30:57.859Z,2.43
2019-03-22T01:33:23.727Z,2.42
2019-03-22T01:35:49.668Z,2.41
2019-03-22T01:38:15.546Z,2.41
2019-03-22T01:40:41.401Z,2.40
2019-03-22T01:43:09.782Z,2.40
2019-03-22T01:45:35.786Z,2.37
2019-03-22T01:48:01.746Z,2.34
2019-03-22T01:50:27.606Z,2.32
2019-03-22T01:52:53.607Z,2.31
2019-03-22T01:55:19.471Z,2.30
2019-03-22T01:57:52.971Z,2.30
2019-03-22T02:00:13.901Z,2.29
2019-03-22T02:02:40.358Z,2.27
2019-03-22T02:05:06.524Z,2.25
2019-03-22T02:07:32.605Z,2.23
2019-03-22T02:09:58.493Z,2.22
2019-03-22T02:12:24.450Z,2.19
2019-03-22T02:14:50.447Z,2.17
2019-03-22T02:17:16.275Z,2.15
2019-03-22T02:19:42.181Z,2.15
2019-03-22T02:22:08.071Z,2.13
2019-03-22T02:24:34.036Z,2.14
2019-03-22T02:26:59.890Z,2.12
2019-03-22T02:29:25.778Z,2.11
2019-03-22T02:31:51.619Z,2.10
2019-03-22T02:34:17.499Z,2.08
2019-03-22T02:36:43.389Z,2.04
2019-03-22T02:39:09.352Z,2.02
2019-03-22T02:41:35.195Z,1.98
2019-03-22T02:44:01.097Z,1.95
2019-03-22T02:46:26.974Z,1.88
2019-03-22T02:48:52.847Z,1.86
2019-03-22T02:51:20.631Z,1.86
2019-03-22T02:53:46.579Z,1.87
2019-03-22T02:56:12.707Z,1.89
2019-03-22T02:58:38.632Z,1.90
2019-03-22T03:01:04.613Z,1.90
2019-03-22T03:03:30.466Z,1.91
2019-03-22T03:05:56.718Z,1.91
2019-03-22T03:08:22.581Z,1.89
2019-03-22T03:10:48.532Z,1.90
2019-03-22T03:13:14.588Z,1.90
2019-03-22T03:15:41.960Z,1.67
2019-03-22T03:18:07.839Z,1.91
2019-03-22T03:20:33.755Z,1.89
2019-03-22T03:22:59.614Z,1.88
2019-03-22T03:25:25.761Z,1.61
2019-03-22T03:27:51.631Z,1.86
2019-03-22T03:30:19.383Z,1.84
2019-03-22T03:32:45.356Z,1.83
2019-03-22T03:35:11.540Z,1.80
2019-03-22T03:37:37.370Z,1.76
2019-03-22T03:40:05.134Z,1.74
2019-03-22T03:42:31.207Z,1.72
2019-03-22T03:44:57.065Z,1.71
2019-03-22T03:47:24.812Z,1.70
2019-03-22T03:49:50.687Z,1.71
2019-03-22T03:52:16.575Z,1.72
2019-03-22T03:54:42.477Z,1.73
2019-03-22T03:57:08.378Z,1.74
2019-03-22T03:59:34.238Z,1.75
2019-03-22T04:02:00.114Z,1.76
2019-03-22T04:04:25.997Z,1.75
2019-03-22T04:06:51.861Z,1.74
2019-03-22T04:09:17.704Z,1.75
2019-03-22T04:11:43.680Z,1.73
2019-03-22T04:14:09.695Z,1.72
2019-03-22T04:16:35.646Z,1.69
2019-03-22T04:19:01.599Z,1.67
2019-03-22T04:21:27.448Z,1.66
2019-03-22T04:23:53.337Z,1.63
2019-03-22T04:26:19.280Z,1.61
2019-03-22T04:28:45.141Z,1.59
2019-03-22T04:31:11.012Z,1.57
2019-03-22T04:33:36.870Z,1.57
2019-03-22T04:36:02.837Z,1.57
2019-03-22T04:38:28.692Z,1.57
2019-03-22T04:40:54.726Z,1.56
2019-03-22T04:43:20.640Z,1.56
2019-03-22T04:45:46.617Z,1.56
2019-03-22T04:48:17.412Z,1.55
2019-03-22T04:50:45.153Z,1.55
2019-03-22T04:53:12.608Z,1.54
2019-03-22T04:55:40.372Z,1.55
2019-03-22T04:58:07.517Z,1.55
2019-03-22T05:00:34.461Z,1.54
2019-03-22T05:03:00.452Z,1.55
2019-03-22T05:05:26.412Z,1.55
2019-03-22T05:07:52.473Z,1.55
2019-03-22T05:10:19.042Z,1.54
2019-03-22T05:12:45.254Z,1.51
2019-03-22T05:15:13.121Z,1.48
2019-03-22T05:17:39.795Z,1.48
2019-03-22T05:20:05.756Z,1.48
2019-03-22T05:22:32.525Z,1.48
2019-03-22T05:24:59.676Z,1.47
2019-03-22T05:27:27.266Z,1.46
2019-03-22T05:29:55.025Z,1.43
2019-03-22T05:32:20.884Z,1.41
2019-03-22T05:34:46.767Z,1.40
2019-03-22T05:37:12.628Z,1.40
2019-03-22T05:39:38.500Z,1.40
2019-03-22T05:42:04.443Z,1.40
2019-03-22T05:44:30.448Z,1.40
2019-03-22T05:46:56.528Z,1.40
2019-03-22T05:49:22.362Z,1.40
2019-03-22T05:51:48.238Z,1.42
2019-03-22T05:54:14.099Z,1.43
2019-03-22T05:56:40.061Z,1.44
2019-03-22T05:59:06.020Z,1.44
2019-03-22T06:01:31.913Z,1.43
2019-03-22T06:03:57.868Z,1.44
2019-03-22T06:06:23.728Z,1.45
2019-03-22T06:08:49.799Z,1.44
2019-03-22T06:11:15.712Z,1.46
2019-03-22T06:13:44.244Z,1.49
2019-03-22T06:16:09.319Z,1.51
2019-03-22T06:18:35.192Z,1.51
2019-03-22T06:21:01.079Z,1.29
2019-03-22T06:23:28.265Z,1.56
2019-03-22T06:25:54.498Z,1.60
2019-03-22T06:28:20.343Z,1.62
2019-03-22T06:30:46.182Z,1.64
2019-03-22T06:33:12.085Z,1.66
2019-03-22T06:35:38.080Z,1.67
2019-03-22T06:38:05.244Z,1.69
2019-03-22T06:40:31.141Z,1.73
2019-03-22T06:42:56.994Z,1.75
2019-03-22T06:45:22.982Z,1.77
2019-03-22T06:47:48.817Z,1.80
2019-03-22T06:50:14.674Z,1.85
2019-03-22T06:52:40.554Z,1.90
2019-03-22T06:55:06.522Z,1.93
2019-03-22T06:57:32.389Z,1.97
2019-03-22T07:00:06.532Z,2.00
2019-03-22T07:02:26.234Z,2.01
2019-03-22T07:04:52.128Z,2.04
2019-03-22T07:07:17.969Z,2.07
2019-03-22T07:09:44.818Z,2.08
2019-03-22T07:12:10.706Z,2.12
2019-03-22T07:14:36.889Z,2.15
2019-03-22T07:17:03.067Z,2.20
2019-03-22T07:19:28.916Z,2.24
2019-03-22T07:21:56.618Z,2.28
2019-03-22T07:24:22.441Z,2.32
2019-03-22T07:26:48.319Z,2.36
2019-03-22T07:29:14.193Z,2.39
2019-03-22T07:31:40.071Z,2.42
2019-03-22T07:34:05.955Z,2.45
2019-03-22T07:36:31.808Z,2.48
2019-03-22T07:38:57.692Z,2.51
2019-03-22T07:41:23.647Z,2.55
2019-03-22T07:43:49.493Z,2.59
2019-03-22T07:46:15.357Z,2.63
2019-03-22T07:48:41.252Z,2.68
2019-03-22T07:51:07.083Z,2.71
2019-03-22T07:53:32.945Z,2.75
2019-03-22T07:55:58.940Z,2.79
2019-03-22T07:58:24.782Z,2.83
2019-03-22T08:00:50.651Z,2.88
2019-03-22T08:03:16.553Z,2.92
2019-03-22T08:05:50.774Z,2.97
2019-03-22T08:08:10.216Z,3.03
2019-03-22T08:10:36.191Z,2.96
2019-03-22T08:13:02.153Z,3.12
2019-03-22T08:15:28.894Z,3.15
2019-03-22T08:17:57.013Z,3.20
2019-03-22T08:20:22.641Z,3.25
2019-03-22T08:22:48.590Z,3.28
2019-03-22T08:25:14.477Z,3.32
2019-03-22T08:27:40.350Z,3.36
2019-03-22T08:30:06.420Z,3.42
2019-03-22T08:32:32.484Z,3.47
2019-03-22T08:34:58.327Z,3.51
2019-03-22T08:37:24.180Z,3.54
2019-03-22T08:39:50.186Z,3.58
2019-03-22T08:42:16.145Z,3.63
2019-03-22T08:44:42.026Z,3.68
2019-03-22T08:47:07.898Z,3.72
2019-03-22T08:49:33.763Z,3.76
2019-03-22T08:51:59.796Z,3.81
2019-03-22T08:54:25.685Z,3.87
2019-03-22T08:56:51.595Z,3.92
2019-03-22T08:59:17.420Z,3.99
2019-03-22T09:01:43.313Z,4.05
2019-03-22T09:04:09.149Z,4.11
2019-03-22T09:06:35.141Z,4.17
2019-03-22T09:09:01.024Z,4.24
2019-03-22T09:11:26.900Z,4.29
2019-03-22T09:13:53.872Z,4.36
2019-03-22T09:16:20.016Z,4.43
2019-03-22T09:18:46.248Z,4.49
2019-03-22T09:21:12.256Z,4.56
2019-03-22T09:23:38.168Z,4.64
2019-03-22T09:26:04.046Z,4.71
2019-03-22T09:28:31.009Z,4.80
2019-03-22T09:31:09.424Z,4.88
2019-03-22T09:33:24.641Z,4.97
2019-03-22T09:35:50.622Z,5.07
2019-03-22T09:38:16.465Z,5.18
2019-03-22T09:40:42.332Z,5.28
2019-03-22T09:43:08.195Z,5.11
2019-03-22T09:45:34.192Z,5.43
2019-03-22T09:48:00.247Z,5.53
2019-03-22T09:50:26.277Z,5.64
2019-03-22T09:52:52.127Z,5.75
2019-03-22T09:55:18.075Z,5.87
2019-03-22T09:57:43.971Z,6.01
2019-03-22T10:00:11.845Z,6.19
2019-03-22T10:02:37.973Z,6.36
2019-03-22T10:05:04.633Z,6.56
2019-03-22T10:07:30.490Z,6.67
2019-03-22T10:09:56.434Z,6.82
2019-03-22T10:12:22.282Z,6.95
2019-03-22T10:14:48.191Z,7.08
2019-03-22T10:17:14.216Z,7.24
2019-03-22T10:19:42.151Z,7.17
2019-03-22T10:22:07.870Z,7.52
2019-03-22T10:24:33.714Z,7.67
2019-03-22T10:26:59.580Z,7.81
2019-03-22T10:29:25.484Z,7.96
2019-03-22T10:31:51.362Z,8.11
2019-03-22T10:34:17.232Z,8.25
2019-03-22T10:36:43.500Z,8.38
2019-03-22T10:39:09.399Z,8.51
2019-03-22T10:41:35.354Z,8.59
2019-03-22T10:44:01.488Z,8.64
2019-03-22T10:46:27.557Z,8.71
2019-03-22T10:48:53.353Z,8.81
2019-03-22T10:51:21.534Z,8.95
2019-03-22T10:53:46.916Z,9.08
2019-03-22T10:56:12.776Z,9.20
2019-03-22T10:58:38.779Z,9.30
2019-03-22T11:01:08.011Z,9.40
2019-03-22T11:03:32.508Z,9.47
2019-03-22T11:05:58.386Z,9.48
2019-03-22T11:08:24.358Z,9.51
2019-03-22T11:10:50.323Z,9.57
2019-03-22T11:13:16.358Z,9.59
2019-03-22T11:15:48.455Z,9.67
2019-03-22T11:18:09.954Z,9.78
2019-03-22T11:20:36.042Z,9.83
2019-03-22T11:23:02.013Z,9.94
2019-03-22T11:25:27.993Z,10.05
2019-03-22T11:27:53.962Z,10.11
2019-03-22T11:30:19.936Z,10.14
2019-03-22T11:32:45.861Z,10.21
2019-03-22T11:35:11.942Z,10.29
2019-03-22T11:37:37.809Z,10.36
2019-03-22T11:40:07.913Z,10.45
2019-03-22T11:42:33.805Z,10.51
2019-03-22T11:44:59.660Z,10.58
2019-03-22T11:47:25.526Z,10.66
2019-03-22T11:49:51.394Z,10.73
2019-03-22T11:52:17.375Z,10.75
2019-03-22T11:54:43.214Z,10.78
2019-03-22T11:57:09.153Z,10.83
2019-03-22T11:59:35.026Z,10.89
2019-03-22T12:02:00.891Z,10.93
2019-03-22T12:04:26.746Z,11.02
2019-03-22T12:06:52.689Z,11.08
2019-03-22T12:09:18.759Z,11.19
2019-03-22T12:11:44.616Z,11.34
2019-03-22T12:14:10.479Z,11.46
2019-03-22T12:16:36.477Z,11.58
2019-03-22T12:19:02.549Z,11.71
2019-03-22T12:21:28.518Z,11.80
2019-03-22T12:23:54.393Z,11.87
2019-03-22T12:26:20.259Z,11.95
2019-03-22T12:28:46.274Z,11.99
2019-03-22T12:31:12.266Z,12.01
2019-03-22T12:33:38.118Z,12.04
2019-03-22T12:36:04.088Z,12.09
2019-03-22T12:38:29.938Z,12.13
2019-03-22T12:40:55.815Z,12.16
2019-03-22T12:43:21.659Z,12.19
2019-03-22T12:45:47.557Z,12.26
2019-03-22T12:48:13.501Z,12.31
2019-03-22T12:50:39.464Z,12.35
2019-03-22T12:53:05.448Z,12.36
2019-03-22T12:55:31.413Z,12.32
2019-03-22T12:57:59.373Z,12.26
2019-03-22T13:00:25.335Z,12.27
2019-03-22T13:02:51.619Z,12.12
2019-03-22T13:05:17.778Z,12.22
2019-03-22T13:07:43.849Z,12.18
2019-03-22T13:10:11.593Z,12.12
2019-03-22T13:12:37.561Z,12.04
2019-03-22T13:15:04.138Z,12.03
2019-03-22T13:17:30.021Z,12.09
2019-03-22T13:19:55.987Z,12.11
2019-03-22T13:22:22.135Z,12.14
2019-03-22T13:24:47.995Z,12.16
2019-03-22T13:27:13.856Z,12.21
2019-03-22T13:29:40.050Z,12.23
2019-03-22T13:32:05.911Z,12.20
2019-03-22T13:34:31.759Z,12.18
2019-03-22T13:36:57.746Z,12.20
2019-03-22T13:39:23.606Z,12.16
2019-03-22T13:41:49.465Z,12.09
2019-03-22T13:44:15.312Z,12.04
2019-03-22T13:46:41.254Z,11.99
2019-03-22T13:49:07.248Z,11.96
2019-03-22T13:51:33.200Z,11.95
2019-03-22T13:53:59.062Z,11.86
2019-03-22T13:56:25.106Z,11.74
2019-03-22T13:58:50.990Z,11.63
2019-03-22T14:01:16.985Z,11.57
2019-03-22T14:03:42.848Z,11.48
2019-03-22T14:06:08.690Z,11.37
2019-03-22T14:08:34.560Z,11.27
2019-03-22T14:11:00.435Z,11.18
2019-03-22T14:13:26.425Z,11.08
2019-03-22T14:15:52.306Z,10.98
2019-03-22T14:18:18.157Z,10.88
2019-03-22T14:20:44.098Z,10.61
2019-03-22T14:23:10.439Z,10.66
2019-03-22T14:25:36.289Z,10.27
2019-03-22T14:28:02.242Z,10.32
2019-03-22T14:30:28.239Z,10.25
2019-03-22T14:32:54.186Z,10.15
2019-03-22T14:35:20.030Z,10.04
2019-03-22T14:37:46.126Z,9.86
2019-03-22T14:40:15.591Z,9.67
2019-03-22T14:42:39.977Z,9.48
2019-03-22T14:45:07.029Z,9.38
2019-03-22T14:47:32.866Z,9.29
2019-03-22T14:49:58.732Z,9.22
2019-03-22T14:52:24.728Z,9.12
2019-03-22T14:54:50.588Z,9.09
2019-03-22T14:57:17.228Z,9.02
2019-03-22T14:59:43.123Z,8.90
2019-03-22T15:02:10.844Z,8.78
2019-03-22T15:04:36.870Z,8.65
2019-03-22T15:07:02.824Z,8.56
2019-03-22T15:09:28.653Z,8.47
2019-03-22T15:11:54.508Z,8.17
2019-03-22T15:14:28.290Z,8.23
2019-03-22T15:17:12.567Z,8.14
2019-03-22T15:19:42.503Z,8.03
2019-03-22T15:22:10.054Z,7.92
2019-03-22T15:24:41.259Z,7.83
2019-03-22T15:27:15.278Z,7.75
2019-03-22T15:29:59.519Z,7.65
2019-03-22T15:32:43.840Z,7.57
2019-03-22T15:35:11.785Z,7.51
2019-03-22T15:37:45.243Z,7.44
2019-03-22T15:40:11.201Z,7.36
2019-03-22T15:42:37.281Z,7.28
2019-03-22T15:45:04.574Z,7.20
2019-03-22T15:47:30.758Z,7.12
2019-03-22T15:49:56.710Z,7.02
2019-03-22T15:52:22.750Z,6.93
2019-03-22T15:54:48.596Z,6.84
2019-03-22T15:57:14.560Z,6.74
2019-03-22T15:59:40.621Z,6.64
2019-03-22T16:02:06.568Z,6.57
2019-03-22T16:04:32.433Z,6.44
2019-03-22T16:06:58.455Z,6.29
2019-03-22T16:09:24.307Z,6.19
2019-03-22T16:11:50.162Z,6.08
2019-03-22T16:14:16.164Z,6.01
2019-03-22T16:16:42.028Z,5.95
2019-03-22T16:19:07.880Z,5.88
2019-03-22T16:21:33.775Z,5.80
2019-03-22T16:23:59.627Z,5.67
2019-03-22T16:26:25.630Z,5.54
2019-03-22T16:28:51.495Z,5.47
2019-03-22T16:31:17.346Z,5.39
2019-03-22T16:33:43.316Z,5.26
2019-03-22T16:36:09.195Z,5.19
2019-03-22T16:38:35.038Z,5.12
2019-03-22T16:41:00.904Z,5.03
2019-03-22T16:43:26.750Z,4.94
2019-03-22T16:45:52.634Z,4.87
2019-03-22T16:48:18.531Z,4.84
2019-03-22T16:50:44.407Z,4.79
2019-03-22T16:53:11.214Z,4.72
2019-03-22T16:55:37.064Z,4.70
2019-03-22T16:58:03.420Z,4.68
2019-03-22T17:00:29.388Z,4.66
2019-03-22T17:02:55.251Z,4.63
2019-03-22T17:05:21.240Z,4.64
2019-03-22T17:07:47.250Z,4.62
2019-03-22T17:10:13.203Z,4.58
2019-03-22T17:12:39.136Z,4.54
2019-03-22T17:15:05.916Z,4.51
2019-03-22T17:17:33.664Z,4.48
2019-03-22T17:19:59.587Z,4.43
2019-03-22T17:22:25.436Z,4.39
2019-03-22T17:24:51.286Z,4.34
2019-03-22T17:27:17.463Z,4.29
2019-03-22T17:29:43.316Z,4.26
2019-03-22T17:32:09.261Z,4.26
2019-03-22T17:34:35.170Z,4.21
2019-03-22T17:37:01.142Z,4.29
2019-03-22T17:39:29.059Z,4.31
2019-03-22T17:41:54.934Z,4.33
2019-03-22T17:44:20.779Z,4.35
2019-03-22T17:46:46.836Z,4.37
2019-03-22T17:49:12.711Z,4.39
2019-03-22T17:51:38.678Z,4.40
2019-03-22T17:54:05.827Z,4.40
2019-03-22T17:56:31.721Z,4.35
2019-03-22T17:58:57.573Z,4.33
2019-03-22T18:01:23.444Z,4.34
2019-03-22T18:03:49.287Z,4.31
2019-03-22T18:06:15.129Z,4.32
2019-03-22T18:08:41.036Z,4.32
2019-03-22T18:11:06.933Z,4.34
2019-03-22T18:13:32.910Z,4.33
2019-03-22T18:15:58.853Z,4.31
2019-03-22T18:18:24.886Z,4.32
2019-03-22T18:20:50.750Z,4.33
2019-03-22T18:23:16.606Z,4.31
2019-03-22T18:25:42.531Z,4.32
2019-03-22T18:28:11.085Z,4.35
2019-03-22T18:30:36.963Z,4.36
2019-03-22T18:33:03.140Z,4.38
2019-03-22T18:35:29.116Z,4.40
2019-03-22T18:37:54.991Z,4.38
2019-03-22T18:40:20.855Z,4.38
2019-03-22T18:42:46.778Z,4.37
2019-03-22T18:45:12.731Z,4.35
2019-03-22T18:47:39.011Z,4.34
2019-03-22T18:50:05.994Z,4.35
2019-03-22T18:52:31.981Z,4.33
2019-03-22T18:54:57.840Z,4.30
2019-03-22T18:57:23.674Z,4.28
2019-03-22T18:59:49.527Z,4.28
2019-03-22T19:02:15.505Z,4.29
2019-03-22T19:04:44.384Z,4.29
2019-03-22T19:07:09.132Z,4.31
2019-03-22T19:09:34.996Z,4.32
2019-03-22T19:12:00.868Z,4.33
2019-03-22T19:14:26.714Z,4.33
2019-03-22T19:16:52.680Z,4.33
2019-03-22T19:19:18.542Z,4.35
2019-03-22T19:21:44.497Z,4.32
2019-03-22T19:24:10.472Z,4.34
2019-03-22T19:26:36.406Z,4.35
2019-03-22T19:29:02.783Z,4.37
2019-03-22T19:31:28.635Z,4.37
2019-03-22T19:33:54.502Z,4.39
2019-03-22T19:36:20.346Z,4.43
2019-03-22T19:38:46.316Z,4.46
2019-03-22T19:41:12.615Z,4.46
2019-03-22T19:43:38.464Z,4.46
2019-03-22T19:46:04.439Z,4.46
2019-03-22T19:48:30.302Z,4.46
2019-03-22T19:50:56.137Z,4.47
2019-03-22T19:53:22.139Z,4.51
2019-03-22T19:55:48.011Z,4.53
2019-03-22T19:58:14.099Z,4.55
2019-03-22T20:00:40.060Z,4.57
2019-03-22T20:03:06.017Z,4.59
2019-03-22T20:05:31.997Z,4.60
2019-03-22T20:07:58.065Z,4.62
2019-03-22T20:10:23.955Z,4.64
2019-03-22T20:12:49.915Z,4.66
2019-03-22T20:15:15.776Z,4.69
2019-03-22T20:17:41.747Z,4.72
2019-03-22T20:20:07.917Z,4.75
2019-03-22T20:22:35.388Z,4.79
2019-03-22T20:25:01.380Z,4.80
2019-03-22T20:27:27.314Z,4.83
2019-03-22T20:29:54.712Z,4.85
2019-03-22T20:32:20.703Z,4.87
2019-03-22T20:34:48.464Z,4.88
2019-03-22T20:37:14.328Z,4.90
2019-03-22T20:39:40.207Z,4.91
2019-03-22T20:42:06.100Z,4.92
2019-03-22T20:44:34.124Z,4.91
2019-03-22T20:46:59.633Z,4.93
2019-03-22T20:49:25.497Z,4.94
2019-03-22T20:51:51.510Z,4.95
2019-03-22T20:54:17.368Z,4.96
2019-03-22T20:56:43.233Z,4.97
2019-03-22T20:59:09.098Z,4.99
2019-03-22T21:01:35.066Z,5.00
2019-03-22T21:04:01.963Z,4.99
2019-03-22T21:06:27.931Z,4.99
2019-03-22T21:08:53.868Z,4.98
2019-03-22T21:11:19.775Z,4.96
2019-03-22T21:13:45.631Z,4.96
2019-03-22T21:16:11.481Z,4.95
2019-03-22T21:18:37.339Z,4.96
2019-03-22T21:21:03.303Z,4.97
2019-03-22T21:23:36.258Z,4.99
2019-03-22T21:25:57.145Z,5.00
2019-03-22T21:28:23.083Z,5.00
2019-03-22T21:30:49.036Z,5.01
2019-03-22T21:33:14.918Z,5.00
2019-03-22T21:35:40.883Z,4.99
2019-03-22T21:38:11.041Z,4.97
2019-03-22T21:40:36.209Z,4.96
2019-03-22T21:43:02.154Z,4.96
2019-03-22T21:45:28.216Z,4.94
2019-03-22T21:47:54.081Z,4.92
2019-03-22T21:50:20.011Z,4.91
2019-03-22T21:52:45.908Z,4.92
2019-03-22T21:55:12.031Z,4.94
2019-03-22T21:57:37.884Z,4.93
2019-03-22T22:00:07.903Z,4.94
2019-03-22T22:02:33.784Z,4.93
2019-03-22T22:04:59.772Z,4.94
2019-03-22T22:07:25.640Z,4.95
2019-03-22T22:09:51.514Z,4.93
2019-03-22T22:12:17.393Z,4.93
2019-03-22T22:14:43.371Z,4.90
2019-03-22T22:17:09.215Z,4.88
2019-03-22T22:19:35.074Z,4.84
2019-03-22T22:22:00.933Z,4.87
2019-03-22T22:24:26.790Z,4.85
2019-03-22T22:26:52.682Z,4.83
2019-03-22T22:29:18.547Z,4.80
2019-03-22T22:31:44.592Z,4.79
2019-03-22T22:34:10.490Z,4.79
2019-03-22T22:36:36.483Z,4.81
2019-03-22T22:39:04.325Z,4.82
2019-03-22T22:41:30.200Z,4.80
2019-03-22T22:43:56.208Z,4.82
2019-03-22T22:46:22.202Z,4.84
2019-03-22T22:48:48.059Z,4.84
2019-03-22T22:51:13.898Z,4.83
2019-03-22T22:53:39.747Z,4.83
2019-03-22T22:56:05.666Z,4.83
2019-03-22T22:58:31.521Z,4.85
2019-03-22T23:00:57.565Z,4.88
2019-03-22T23:03:23.434Z,4.92
2019-03-22T23:05:49.311Z,4.92
2019-03-22T23:08:15.160Z,4.93
2019-03-22T23:10:41.148Z,4.93
2019-03-22T23:13:07.001Z,4.95
2019-03-22T23:15:32.856Z,4.95
2019-03-22T23:17:58.837Z,4.96
2019-03-22T23:20:24.792Z,4.96
2019-03-22T23:22:50.643Z,4.97
2019-03-22T23:25:16.513Z,4.96
2019-03-22T23:27:42.399Z,4.95
2019-03-22T23:30:09.566Z,4.94
2019-03-22T23:32:35.699Z,4.93
2019-03-22T23:35:01.782Z,4.92
2019-03-22T23:37:27.634Z,4.92
2019-03-22T23:39:53.613Z,4.93
2019-03-22T23:42:19.592Z,4.94
2019-03-22T23:44:45.736Z,4.95
2019-03-22T23:47:11.714Z,4.94
2019-03-22T23:49:37.633Z,4.95
2019-03-22T23:52:03.496Z,4.96
2019-03-22T23:54:29.370Z,4.96
2019-03-22T23:56:55.229Z,4.97
2019-03-22T23:59:21.108Z,4.96
